sensor_id;sensor_type;location;lat;lon;timestamp;P1;durP1;ratioP1;P2;durP2;ratioP2
48241;SDS011;34041;51.812;4.622;2024-02-26T00:02:41;7.23;;;2.80;;
48241;SDS011;34041;51.812;4.622;2024-02-26T00:05:41;5.32;;;3.13;;
48241;SDS011;34041;51.812;4.622;2024-02-26T00:08:42;4.07;;;3.20;;
48241;SDS011;34041;51.812;4.622;2024-02-26T00:11:42;5.07;;;3.27;;
48241;SDS011;34041;51.812;4.622;2024-02-26T00:14:42;4.47;;;3.03;;
48241;SDS011;34041;51.812;4.622;2024-02-26T00:17:45;5.82;;;2.95;;
48241;SDS011;34041;51.812;4.622;2024-02-26T00:20:45;3.70;;;2.90;;
48241;SDS011;34041;51.812;4.622;2024-02-26T00:23:45;6.07;;;3.50;;
48241;SDS011;34041;51.812;4.622;2024-02-26T00:26:46;6.18;;;2.95;;
48241;SDS011;34041;51.812;4.622;2024-02-26T00:29:46;4.00;;;3.20;;
48241;SDS011;34041;51.812;4.622;2024-02-26T00:32:46;5.40;;;3.33;;
48241;SDS011;34041;51.812;4.622;2024-02-26T00:35:46;4.00;;;2.67;;
48241;SDS011;34041;51.812;4.622;2024-02-26T00:38:46;4.70;;;2.97;;
48241;SDS011;34041;51.812;4.622;2024-02-26T00:41:50;6.50;;;2.72;;
48241;SDS011;34041;51.812;4.622;2024-02-26T00:44:51;5.22;;;2.70;;
48241;SDS011;34041;51.812;4.622;2024-02-26T00:47:51;4.10;;;2.90;;
48241;SDS011;34041;51.812;4.622;2024-02-26T00:50:52;4.00;;;2.87;;
48241;SDS011;34041;51.812;4.622;2024-02-26T00:53:52;4.90;;;2.80;;
48241;SDS011;34041;51.812;4.622;2024-02-26T00:56:52;4.57;;;3.03;;
48241;SDS011;34041;51.812;4.622;2024-02-26T00:59:52;4.13;;;3.00;;
48241;SDS011;34041;51.812;4.622;2024-02-26T01:02:53;6.70;;;3.20;;
48241;SDS011;34041;51.812;4.622;2024-02-26T01:05:53;5.40;;;3.30;;
48241;SDS011;34041;51.812;4.622;2024-02-26T01:08:53;5.33;;;2.87;;
48241;SDS011;34041;51.812;4.622;2024-02-26T01:11:53;5.57;;;2.92;;
48241;SDS011;34041;51.812;4.622;2024-02-26T01:14:53;4.57;;;3.43;;
48241;SDS011;34041;51.812;4.622;2024-02-26T01:17:54;3.50;;;2.63;;
48241;SDS011;34041;51.812;4.622;2024-02-26T01:20:54;7.75;;;2.60;;
48241;SDS011;34041;51.812;4.622;2024-02-26T01:23:54;4.57;;;3.20;;
48241;SDS011;34041;51.812;4.622;2024-02-26T01:26:55;8.83;;;3.17;;
48241;SDS011;34041;51.812;4.622;2024-02-26T01:29:55;4.77;;;3.07;;
48241;SDS011;34041;51.812;4.622;2024-02-26T01:32:55;5.23;;;3.50;;
48241;SDS011;34041;51.812;4.622;2024-02-26T01:35:55;6.50;;;2.93;;
48241;SDS011;34041;51.812;4.622;2024-02-26T01:38:58;4.17;;;3.13;;
48241;SDS011;34041;51.812;4.622;2024-02-26T01:41:59;3.92;;;3.35;;
48241;SDS011;34041;51.812;4.622;2024-02-26T01:44:59;4.37;;;3.23;;
48241;SDS011;34041;51.812;4.622;2024-02-26T01:47:59;5.65;;;2.80;;
48241;SDS011;34041;51.812;4.622;2024-02-26T01:51:00;3.53;;;2.97;;
48241;SDS011;34041;51.812;4.622;2024-02-26T01:54:00;4.22;;;3.13;;
48241;SDS011;34041;51.812;4.622;2024-02-26T01:57:02;5.30;;;3.70;;
48241;SDS011;34041;51.812;4.622;2024-02-26T02:00:03;4.05;;;3.28;;
48241;SDS011;34041;51.812;4.622;2024-02-26T02:03:05;4.30;;;3.58;;
48241;SDS011;34041;51.812;4.622;2024-02-26T02:06:06;8.00;;;3.75;;
48241;SDS011;34041;51.812;4.622;2024-02-26T02:09:06;5.28;;;3.88;;
48241;SDS011;34041;51.812;4.622;2024-02-26T02:12:07;3.63;;;3.30;;
48241;SDS011;34041;51.812;4.622;2024-02-26T02:15:08;7.30;;;3.88;;
48241;SDS011;34041;51.812;4.622;2024-02-26T02:18:08;4.60;;;4.05;;
48241;SDS011;34041;51.812;4.622;2024-02-26T02:21:08;6.03;;;5.32;;
48241;SDS011;34041;51.812;4.622;2024-02-26T02:24:09;5.10;;;3.70;;
48241;SDS011;34041;51.812;4.622;2024-02-26T02:27:09;5.82;;;3.83;;
48241;SDS011;34041;51.812;4.622;2024-02-26T02:30:09;4.60;;;4.05;;
48241;SDS011;34041;51.812;4.622;2024-02-26T02:33:10;5.43;;;4.93;;
48241;SDS011;34041;51.812;4.622;2024-02-26T02:36:12;6.85;;;4.13;;
48241;SDS011;34041;51.812;4.622;2024-02-26T02:39:12;4.53;;;3.72;;
48241;SDS011;34041;51.812;4.622;2024-02-26T02:42:12;5.30;;;3.53;;
48241;SDS011;34041;51.812;4.622;2024-02-26T02:45:13;4.70;;;3.80;;
48241;SDS011;34041;51.812;4.622;2024-02-26T02:48:13;4.57;;;4.10;;
48241;SDS011;34041;51.812;4.622;2024-02-26T02:51:13;5.85;;;4.38;;
48241;SDS011;34041;51.812;4.622;2024-02-26T02:54:13;5.80;;;4.20;;
48241;SDS011;34041;51.812;4.622;2024-02-26T02:57:14;5.53;;;4.43;;
48241;SDS011;34041;51.812;4.622;2024-02-26T03:00:14;7.20;;;4.80;;
48241;SDS011;34041;51.812;4.622;2024-02-26T03:03:14;5.15;;;4.18;;
48241;SDS011;34041;51.812;4.622;2024-02-26T03:06:14;7.13;;;5.03;;
48241;SDS011;34041;51.812;4.622;2024-02-26T03:09:15;7.73;;;5.40;;
48241;SDS011;34041;51.812;4.622;2024-02-26T03:12:15;6.90;;;5.53;;
48241;SDS011;34041;51.812;4.622;2024-02-26T03:15:15;6.68;;;4.53;;
48241;SDS011;34041;51.812;4.622;2024-02-26T03:18:15;6.60;;;4.75;;
48241;SDS011;34041;51.812;4.622;2024-02-26T03:21:19;7.20;;;5.38;;
48241;SDS011;34041;51.812;4.622;2024-02-26T03:24:19;5.75;;;5.03;;
48241;SDS011;34041;51.812;4.622;2024-02-26T03:27:19;6.30;;;4.83;;
48241;SDS011;34041;51.812;4.622;2024-02-26T03:30:20;5.53;;;4.63;;
48241;SDS011;34041;51.812;4.622;2024-02-26T03:33:20;5.93;;;5.00;;
48241;SDS011;34041;51.812;4.622;2024-02-26T03:36:20;4.80;;;4.22;;
48241;SDS011;34041;51.812;4.622;2024-02-26T03:39:21;6.13;;;5.00;;
48241;SDS011;34041;51.812;4.622;2024-02-26T03:42:22;4.97;;;4.30;;
48241;SDS011;34041;51.812;4.622;2024-02-26T03:45:22;6.35;;;5.25;;
48241;SDS011;34041;51.812;4.622;2024-02-26T03:48:23;5.82;;;4.68;;
48241;SDS011;34041;51.812;4.622;2024-02-26T03:51:23;5.50;;;4.80;;
48241;SDS011;34041;51.812;4.622;2024-02-26T03:54:23;6.47;;;4.60;;
48241;SDS011;34041;51.812;4.622;2024-02-26T03:57:23;6.67;;;4.37;;
48241;SDS011;34041;51.812;4.622;2024-02-26T04:00:23;7.47;;;5.00;;
48241;SDS011;34041;51.812;4.622;2024-02-26T04:03:25;7.25;;;5.20;;
48241;SDS011;34041;51.812;4.622;2024-02-26T04:06:25;10.50;;;5.47;;
48241;SDS011;34041;51.812;4.622;2024-02-26T04:09:26;5.85;;;5.07;;
48241;SDS011;34041;51.812;4.622;2024-02-26T04:12:26;6.90;;;5.00;;
48241;SDS011;34041;51.812;4.622;2024-02-26T04:15:26;6.43;;;4.97;;
48241;SDS011;34041;51.812;4.622;2024-02-26T04:18:27;6.07;;;5.13;;
48241;SDS011;34041;51.812;4.622;2024-02-26T04:21:27;5.47;;;4.72;;
48241;SDS011;34041;51.812;4.622;2024-02-26T04:24:27;7.22;;;5.03;;
48241;SDS011;34041;51.812;4.622;2024-02-26T04:27:27;6.50;;;5.37;;
48241;SDS011;34041;51.812;4.622;2024-02-26T04:30:28;9.35;;;5.65;;
48241;SDS011;34041;51.812;4.622;2024-02-26T04:33:28;6.68;;;4.47;;
48241;SDS011;34041;51.812;4.622;2024-02-26T04:36:28;6.80;;;5.60;;
48241;SDS011;34041;51.812;4.622;2024-02-26T04:39:28;5.80;;;4.78;;
48241;SDS011;34041;51.812;4.622;2024-02-26T04:42:28;6.43;;;5.03;;
48241;SDS011;34041;51.812;4.622;2024-02-26T04:45:29;6.60;;;4.72;;
48241;SDS011;34041;51.812;4.622;2024-02-26T04:48:29;6.97;;;4.70;;
48241;SDS011;34041;51.812;4.622;2024-02-26T04:51:29;7.57;;;6.00;;
48241;SDS011;34041;51.812;4.622;2024-02-26T04:54:29;6.67;;;5.23;;
48241;SDS011;34041;51.812;4.622;2024-02-26T04:57:29;6.07;;;4.63;;
48241;SDS011;34041;51.812;4.622;2024-02-26T05:00:30;8.40;;;6.43;;
48241;SDS011;34041;51.812;4.622;2024-02-26T05:03:30;7.50;;;5.82;;
48241;SDS011;34041;51.812;4.622;2024-02-26T05:06:30;7.47;;;5.35;;
48241;SDS011;34041;51.812;4.622;2024-02-26T05:09:31;6.47;;;4.53;;
48241;SDS011;34041;51.812;4.622;2024-02-26T05:12:31;6.68;;;5.25;;
48241;SDS011;34041;51.812;4.622;2024-02-26T05:15:35;7.20;;;5.32;;
48241;SDS011;34041;51.812;4.622;2024-02-26T05:18:35;8.13;;;5.93;;
48241;SDS011;34041;51.812;4.622;2024-02-26T05:21:36;7.55;;;5.78;;
48241;SDS011;34041;51.812;4.622;2024-02-26T05:24:37;9.02;;;5.82;;
48241;SDS011;34041;51.812;4.622;2024-02-26T05:27:37;8.32;;;5.63;;
48241;SDS011;34041;51.812;4.622;2024-02-26T05:30:38;7.90;;;6.27;;
48241;SDS011;34041;51.812;4.622;2024-02-26T05:33:40;8.60;;;6.47;;
48241;SDS011;34041;51.812;4.622;2024-02-26T05:36:40;10.57;;;6.80;;
48241;SDS011;34041;51.812;4.622;2024-02-26T05:39:40;7.80;;;5.80;;
48241;SDS011;34041;51.812;4.622;2024-02-26T05:42:40;7.75;;;6.32;;
48241;SDS011;34041;51.812;4.622;2024-02-26T05:45:41;10.38;;;5.95;;
48241;SDS011;34041;51.812;4.622;2024-02-26T05:48:41;8.55;;;6.25;;
48241;SDS011;34041;51.812;4.622;2024-02-26T05:51:41;9.73;;;6.17;;
48241;SDS011;34041;51.812;4.622;2024-02-26T05:54:41;11.17;;;7.33;;
48241;SDS011;34041;51.812;4.622;2024-02-26T05:57:42;7.43;;;6.53;;
48241;SDS011;34041;51.812;4.622;2024-02-26T06:00:42;8.85;;;5.78;;
48241;SDS011;34041;51.812;4.622;2024-02-26T06:03:42;7.47;;;5.75;;
48241;SDS011;34041;51.812;4.622;2024-02-26T06:06:43;10.27;;;6.65;;
48241;SDS011;34041;51.812;4.622;2024-02-26T06:09:44;9.88;;;6.95;;
48241;SDS011;34041;51.812;4.622;2024-02-26T06:12:44;9.45;;;6.13;;
48241;SDS011;34041;51.812;4.622;2024-02-26T06:15:44;8.13;;;6.33;;
48241;SDS011;34041;51.812;4.622;2024-02-26T06:18:44;14.47;;;7.07;;
48241;SDS011;34041;51.812;4.622;2024-02-26T06:21:45;11.07;;;6.95;;
48241;SDS011;34041;51.812;4.622;2024-02-26T06:24:45;10.20;;;7.20;;
48241;SDS011;34041;51.812;4.622;2024-02-26T06:27:45;9.88;;;6.88;;
48241;SDS011;34041;51.812;4.622;2024-02-26T06:30:45;9.60;;;6.47;;
48241;SDS011;34041;51.812;4.622;2024-02-26T06:33:46;8.02;;;6.03;;
48241;SDS011;34041;51.812;4.622;2024-02-26T06:36:46;8.10;;;7.00;;
48241;SDS011;34041;51.812;4.622;2024-02-26T06:39:47;8.25;;;5.90;;
48241;SDS011;34041;51.812;4.622;2024-02-26T06:42:47;8.52;;;6.65;;
48241;SDS011;34041;51.812;4.622;2024-02-26T06:45:47;8.93;;;7.20;;
48241;SDS011;34041;51.812;4.622;2024-02-26T06:48:48;9.33;;;8.20;;
48241;SDS011;34041;51.812;4.622;2024-02-26T06:51:48;9.38;;;6.97;;
48241;SDS011;34041;51.812;4.622;2024-02-26T06:54:48;9.63;;;7.20;;
48241;SDS011;34041;51.812;4.622;2024-02-26T06:57:51;8.52;;;6.47;;
48241;SDS011;34041;51.812;4.622;2024-02-26T07:00:51;8.65;;;6.15;;
48241;SDS011;34041;51.812;4.622;2024-02-26T07:03:51;9.15;;;7.22;;
48241;SDS011;34041;51.812;4.622;2024-02-26T07:06:51;10.25;;;7.63;;
48241;SDS011;34041;51.812;4.622;2024-02-26T07:09:52;10.55;;;8.18;;
48241;SDS011;34041;51.812;4.622;2024-02-26T07:12:52;12.00;;;8.55;;
48241;SDS011;34041;51.812;4.622;2024-02-26T07:15:52;11.03;;;7.13;;
48241;SDS011;34041;51.812;4.622;2024-02-26T07:18:52;11.50;;;7.93;;
48241;SDS011;34041;51.812;4.622;2024-02-26T07:21:53;12.03;;;9.23;;
48241;SDS011;34041;51.812;4.622;2024-02-26T07:24:53;11.18;;;8.35;;
48241;SDS011;34041;51.812;4.622;2024-02-26T07:27:53;13.10;;;8.70;;
48241;SDS011;34041;51.812;4.622;2024-02-26T07:30:53;14.17;;;8.73;;
48241;SDS011;34041;51.812;4.622;2024-02-26T07:33:54;12.40;;;9.48;;
48241;SDS011;34041;51.812;4.622;2024-02-26T07:36:54;14.93;;;10.77;;
48241;SDS011;34041;51.812;4.622;2024-02-26T07:39:55;13.32;;;9.38;;
48241;SDS011;34041;51.812;4.622;2024-02-26T07:42:55;15.87;;;10.50;;
48241;SDS011;34041;51.812;4.622;2024-02-26T07:45:55;14.32;;;9.52;;
48241;SDS011;34041;51.812;4.622;2024-02-26T07:48:59;17.50;;;11.73;;
48241;SDS011;34041;51.812;4.622;2024-02-26T07:51:59;13.20;;;10.15;;
48241;SDS011;34041;51.812;4.622;2024-02-26T07:54:59;17.67;;;12.20;;
48241;SDS011;34041;51.812;4.622;2024-02-26T07:58:00;17.10;;;11.32;;
48241;SDS011;34041;51.812;4.622;2024-02-26T08:01:00;20.52;;;13.75;;
48241;SDS011;34041;51.812;4.622;2024-02-26T08:04:00;20.90;;;14.23;;
48241;SDS011;34041;51.812;4.622;2024-02-26T08:07:01;22.35;;;14.10;;
48241;SDS011;34041;51.812;4.622;2024-02-26T08:10:01;19.40;;;14.30;;
48241;SDS011;34041;51.812;4.622;2024-02-26T08:13:01;22.00;;;15.35;;
48241;SDS011;34041;51.812;4.622;2024-02-26T08:16:07;23.40;;;16.42;;
48241;SDS011;34041;51.812;4.622;2024-02-26T08:19:07;26.77;;;17.93;;
48241;SDS011;34041;51.812;4.622;2024-02-26T08:22:10;26.30;;;18.10;;
48241;SDS011;34041;51.812;4.622;2024-02-26T08:25:15;27.20;;;17.60;;
48241;SDS011;34041;51.812;4.622;2024-02-26T08:28:16;24.15;;;18.02;;
48241;SDS011;34041;51.812;4.622;2024-02-26T08:31:18;24.95;;;19.13;;
48241;SDS011;34041;51.812;4.622;2024-02-26T08:34:18;26.43;;;19.20;;
48241;SDS011;34041;51.812;4.622;2024-02-26T08:37:18;26.88;;;19.10;;
48241;SDS011;34041;51.812;4.622;2024-02-26T08:40:18;23.40;;;16.40;;
48241;SDS011;34041;51.812;4.622;2024-02-26T08:43:19;24.67;;;17.30;;
48241;SDS011;34041;51.812;4.622;2024-02-26T08:46:20;25.50;;;17.10;;
48241;SDS011;34041;51.812;4.622;2024-02-26T08:49:20;24.02;;;16.67;;
48241;SDS011;34041;51.812;4.622;2024-02-26T08:52:23;23.77;;;17.90;;
48241;SDS011;34041;51.812;4.622;2024-02-26T08:55:23;19.17;;;15.07;;
48241;SDS011;34041;51.812;4.622;2024-02-26T08:58:24;21.80;;;14.95;;
48241;SDS011;34041;51.812;4.622;2024-02-26T09:01:24;17.23;;;13.93;;
48241;SDS011;34041;51.812;4.622;2024-02-26T09:04:24;20.37;;;14.93;;
48241;SDS011;34041;51.812;4.622;2024-02-26T09:07:25;19.67;;;15.13;;
48241;SDS011;34041;51.812;4.622;2024-02-26T09:10:25;17.80;;;14.57;;
48241;SDS011;34041;51.812;4.622;2024-02-26T09:13:26;18.35;;;13.77;;
48241;SDS011;34041;51.812;4.622;2024-02-26T09:16:26;17.45;;;14.70;;
48241;SDS011;34041;51.812;4.622;2024-02-26T09:19:26;16.08;;;12.73;;
48241;SDS011;34041;51.812;4.622;2024-02-26T09:22:27;15.95;;;12.65;;
48241;SDS011;34041;51.812;4.622;2024-02-26T09:25:28;16.55;;;12.32;;
48241;SDS011;34041;51.812;4.622;2024-02-26T09:28:28;14.80;;;11.18;;
48241;SDS011;34041;51.812;4.622;2024-02-26T09:31:31;17.55;;;12.43;;
48241;SDS011;34041;51.812;4.622;2024-02-26T09:34:31;15.05;;;11.43;;
48241;SDS011;34041;51.812;4.622;2024-02-26T09:37:32;13.93;;;10.35;;
48241;SDS011;34041;51.812;4.622;2024-02-26T09:40:33;12.38;;;10.05;;
48241;SDS011;34041;51.812;4.622;2024-02-26T09:43:34;12.38;;;9.80;;
48241;SDS011;34041;51.812;4.622;2024-02-26T09:46:34;15.02;;;11.63;;
48241;SDS011;34041;51.812;4.622;2024-02-26T09:49:35;12.40;;;9.73;;
48241;SDS011;34041;51.812;4.622;2024-02-26T09:52:35;11.35;;;8.48;;
48241;SDS011;34041;51.812;4.622;2024-02-26T09:55:37;12.85;;;9.82;;
48241;SDS011;34041;51.812;4.622;2024-02-26T09:58:37;11.98;;;7.93;;
48241;SDS011;34041;51.812;4.622;2024-02-26T10:01:38;13.80;;;8.82;;
48241;SDS011;34041;51.812;4.622;2024-02-26T10:04:42;11.75;;;8.80;;
48241;SDS011;34041;51.812;4.622;2024-02-26T10:07:42;9.18;;;7.40;;
48241;SDS011;34041;51.812;4.622;2024-02-26T10:10:44;14.48;;;7.47;;
48241;SDS011;34041;51.812;4.622;2024-02-26T10:13:44;11.75;;;8.02;;
48241;SDS011;34041;51.812;4.622;2024-02-26T10:16:44;11.77;;;7.47;;
48241;SDS011;34041;51.812;4.622;2024-02-26T10:19:45;9.45;;;7.10;;
48241;SDS011;34041;51.812;4.622;2024-02-26T10:22:45;9.20;;;6.97;;
48241;SDS011;34041;51.812;4.622;2024-02-26T10:25:52;9.02;;;6.97;;
48241;SDS011;34041;51.812;4.622;2024-02-26T10:28:52;8.73;;;6.65;;
48241;SDS011;34041;51.812;4.622;2024-02-26T10:31:52;9.63;;;7.75;;
48241;SDS011;34041;51.812;4.622;2024-02-26T10:34:59;8.20;;;6.43;;
48241;SDS011;34041;51.812;4.622;2024-02-26T10:37:59;12.18;;;6.40;;
48241;SDS011;34041;51.812;4.622;2024-02-26T10:41:01;7.53;;;5.57;;
48241;SDS011;34041;51.812;4.622;2024-02-26T10:44:01;10.80;;;6.60;;
48241;SDS011;34041;51.812;4.622;2024-02-26T10:47:01;9.70;;;6.10;;
48241;SDS011;34041;51.812;4.622;2024-02-26T10:50:02;7.20;;;5.82;;
48241;SDS011;34041;51.812;4.622;2024-02-26T10:53:03;7.30;;;5.68;;
48241;SDS011;34041;51.812;4.622;2024-02-26T10:56:05;8.90;;;6.65;;
48241;SDS011;34041;51.812;4.622;2024-02-26T10:59:06;8.05;;;6.43;;
48241;SDS011;34041;51.812;4.622;2024-02-26T11:02:07;8.52;;;6.07;;
48241;SDS011;34041;51.812;4.622;2024-02-26T11:05:08;7.13;;;5.78;;
48241;SDS011;34041;51.812;4.622;2024-02-26T11:08:09;8.70;;;7.18;;
48241;SDS011;34041;51.812;4.622;2024-02-26T11:11:10;8.05;;;5.88;;
48241;SDS011;34041;51.812;4.622;2024-02-26T11:17:15;7.60;;;5.67;;
48241;SDS011;34041;51.812;4.622;2024-02-26T11:20:16;7.40;;;6.07;;
48241;SDS011;34041;51.812;4.622;2024-02-26T11:23:17;8.77;;;6.47;;
48241;SDS011;34041;51.812;4.622;2024-02-26T11:26:17;12.77;;;6.13;;
48241;SDS011;34041;51.812;4.622;2024-02-26T11:29:19;8.30;;;5.90;;
48241;SDS011;34041;51.812;4.622;2024-02-26T11:32:21;9.32;;;6.57;;
48241;SDS011;34041;51.812;4.622;2024-02-26T11:35:21;8.40;;;6.15;;
48241;SDS011;34041;51.812;4.622;2024-02-26T11:38:23;8.68;;;6.10;;
48241;SDS011;34041;51.812;4.622;2024-02-26T11:41:24;7.53;;;6.05;;
48241;SDS011;34041;51.812;4.622;2024-02-26T11:44:30;7.70;;;5.88;;
48241;SDS011;34041;51.812;4.622;2024-02-26T11:47:30;7.38;;;5.85;;
48241;SDS011;34041;51.812;4.622;2024-02-26T11:50:46;7.70;;;6.00;;
48241;SDS011;34041;51.812;4.622;2024-02-26T11:53:46;6.78;;;5.25;;
48241;SDS011;34041;51.812;4.622;2024-02-26T11:56:48;7.95;;;5.97;;
48241;SDS011;34041;51.812;4.622;2024-02-26T11:59:50;7.10;;;5.68;;
48241;SDS011;34041;51.812;4.622;2024-02-26T12:02:54;7.38;;;5.43;;
48241;SDS011;34041;51.812;4.622;2024-02-26T12:05:59;10.85;;;7.28;;
48241;SDS011;34041;51.812;4.622;2024-02-26T12:09:00;10.27;;;6.95;;
48241;SDS011;34041;51.812;4.622;2024-02-26T12:12:04;9.07;;;6.50;;
48241;SDS011;34041;51.812;4.622;2024-02-26T12:15:04;5.03;;;3.97;;
48241;SDS011;34041;51.812;4.622;2024-02-26T12:18:06;11.85;;;8.27;;
48241;SDS011;34041;51.812;4.622;2024-02-26T12:21:06;8.57;;;6.63;;
48241;SDS011;34041;51.812;4.622;2024-02-26T12:24:10;7.28;;;6.03;;
48241;SDS011;34041;51.812;4.622;2024-02-26T12:27:11;8.10;;;6.20;;
48241;SDS011;34041;51.812;4.622;2024-02-26T12:30:12;8.20;;;6.00;;
48241;SDS011;34041;51.812;4.622;2024-02-26T12:33:12;8.40;;;5.82;;
48241;SDS011;34041;51.812;4.622;2024-02-26T12:36:12;8.88;;;5.80;;
48241;SDS011;34041;51.812;4.622;2024-02-26T12:39:13;7.75;;;6.00;;
48241;SDS011;34041;51.812;4.622;2024-02-26T12:42:13;8.10;;;5.63;;
48241;SDS011;34041;51.812;4.622;2024-02-26T12:45:14;8.90;;;5.68;;
48241;SDS011;34041;51.812;4.622;2024-02-26T12:48:15;11.63;;;6.55;;
48241;SDS011;34041;51.812;4.622;2024-02-26T12:51:16;7.57;;;6.33;;
48241;SDS011;34041;51.812;4.622;2024-02-26T12:54:17;8.82;;;5.97;;
48241;SDS011;34041;51.812;4.622;2024-02-26T12:57:17;9.10;;;6.65;;
48241;SDS011;34041;51.812;4.622;2024-02-26T13:00:22;9.77;;;6.93;;
48241;SDS011;34041;51.812;4.622;2024-02-26T13:03:23;7.70;;;5.93;;
48241;SDS011;34041;51.812;4.622;2024-02-26T13:06:23;7.78;;;5.97;;
48241;SDS011;34041;51.812;4.622;2024-02-26T13:09:24;7.43;;;5.50;;
48241;SDS011;34041;51.812;4.622;2024-02-26T13:12:24;12.13;;;6.63;;
48241;SDS011;34041;51.812;4.622;2024-02-26T13:15:25;7.97;;;6.70;;
48241;SDS011;34041;51.812;4.622;2024-02-26T13:18:27;9.10;;;6.97;;
48241;SDS011;34041;51.812;4.622;2024-02-26T13:21:27;8.80;;;6.03;;
48241;SDS011;34041;51.812;4.622;2024-02-26T13:24:28;11.55;;;5.95;;
48241;SDS011;34041;51.812;4.622;2024-02-26T13:27:29;7.75;;;6.00;;
48241;SDS011;34041;51.812;4.622;2024-02-26T13:30:29;9.40;;;5.88;;
48241;SDS011;34041;51.812;4.622;2024-02-26T13:33:29;7.23;;;5.50;;
48241;SDS011;34041;51.812;4.622;2024-02-26T13:36:30;9.00;;;5.80;;
48241;SDS011;34041;51.812;4.622;2024-02-26T13:39:30;10.50;;;5.63;;
48241;SDS011;34041;51.812;4.622;2024-02-26T13:42:30;6.67;;;5.67;;
48241;SDS011;34041;51.812;4.622;2024-02-26T13:45:33;7.50;;;5.80;;
48241;SDS011;34041;51.812;4.622;2024-02-26T13:48:34;8.05;;;4.78;;
48241;SDS011;34041;51.812;4.622;2024-02-26T13:51:34;7.57;;;5.53;;
48241;SDS011;34041;51.812;4.622;2024-02-26T13:54:35;10.45;;;4.90;;
48241;SDS011;34041;51.812;4.622;2024-02-26T13:57:36;8.93;;;5.75;;
48241;SDS011;34041;51.812;4.622;2024-02-26T14:00:36;7.28;;;5.20;;
48241;SDS011;34041;51.812;4.622;2024-02-26T14:03:36;8.80;;;5.63;;
48241;SDS011;34041;51.812;4.622;2024-02-26T14:06:37;8.47;;;6.53;;
48241;SDS011;34041;51.812;4.622;2024-02-26T14:09:37;6.75;;;5.55;;
48241;SDS011;34041;51.812;4.622;2024-02-26T14:12:37;6.68;;;5.40;;
48241;SDS011;34041;51.812;4.622;2024-02-26T14:15:38;7.70;;;4.85;;
48241;SDS011;34041;51.812;4.622;2024-02-26T14:18:39;7.35;;;5.78;;
48241;SDS011;34041;51.812;4.622;2024-02-26T14:21:40;6.85;;;5.32;;
48241;SDS011;34041;51.812;4.622;2024-02-26T14:24:42;6.82;;;4.35;;
48241;SDS011;34041;51.812;4.622;2024-02-26T14:27:42;8.95;;;5.18;;
48241;SDS011;34041;51.812;4.622;2024-02-26T14:30:42;9.15;;;5.82;;
48241;SDS011;34041;51.812;4.622;2024-02-26T14:33:44;7.63;;;5.45;;
48241;SDS011;34041;51.812;4.622;2024-02-26T14:36:44;7.65;;;5.68;;
48241;SDS011;34041;51.812;4.622;2024-02-26T14:39:45;8.03;;;4.83;;
48241;SDS011;34041;51.812;4.622;2024-02-26T14:42:46;7.90;;;6.03;;
48241;SDS011;34041;51.812;4.622;2024-02-26T14:45:47;5.17;;;4.60;;
48241;SDS011;34041;51.812;4.622;2024-02-26T14:48:47;6.82;;;5.25;;
48241;SDS011;34041;51.812;4.622;2024-02-26T14:51:47;6.53;;;4.60;;
48241;SDS011;34041;51.812;4.622;2024-02-26T14:54:48;6.27;;;4.13;;
48241;SDS011;34041;51.812;4.622;2024-02-26T14:57:48;5.40;;;4.20;;
48241;SDS011;34041;51.812;4.622;2024-02-26T15:00:48;5.30;;;3.90;;
48241;SDS011;34041;51.812;4.622;2024-02-26T15:03:49;5.22;;;4.15;;
48241;SDS011;34041;51.812;4.622;2024-02-26T15:06:50;6.13;;;4.30;;
48241;SDS011;34041;51.812;4.622;2024-02-26T15:09:50;5.30;;;4.33;;
48241;SDS011;34041;51.812;4.622;2024-02-26T15:12:50;7.93;;;3.67;;
48241;SDS011;34041;51.812;4.622;2024-02-26T15:15:54;5.25;;;3.58;;
48241;SDS011;34041;51.812;4.622;2024-02-26T15:18:54;5.27;;;3.17;;
48241;SDS011;34041;51.812;4.622;2024-02-26T15:21:54;4.23;;;3.00;;
48241;SDS011;34041;51.812;4.622;2024-02-26T15:24:55;4.33;;;3.30;;
48241;SDS011;34041;51.812;4.622;2024-02-26T15:27:55;4.95;;;3.55;;
48241;SDS011;34041;51.812;4.622;2024-02-26T15:30:55;4.43;;;3.23;;
48241;SDS011;34041;51.812;4.622;2024-02-26T15:33:56;4.40;;;3.40;;
48241;SDS011;34041;51.812;4.622;2024-02-26T15:36:56;4.67;;;3.13;;
48241;SDS011;34041;51.812;4.622;2024-02-26T15:39:57;7.47;;;3.77;;
48241;SDS011;34041;51.812;4.622;2024-02-26T15:42:57;5.15;;;3.13;;
48241;SDS011;34041;51.812;4.622;2024-02-26T15:45:57;4.53;;;3.53;;
48241;SDS011;34041;51.812;4.622;2024-02-26T15:48:57;5.47;;;3.67;;
48241;SDS011;34041;51.812;4.622;2024-02-26T15:51:58;7.10;;;3.35;;
48241;SDS011;34041;51.812;4.622;2024-02-26T15:54:58;6.40;;;3.37;;
48241;SDS011;34041;51.812;4.622;2024-02-26T15:57:58;7.23;;;3.50;;
48241;SDS011;34041;51.812;4.622;2024-02-26T16:00:58;5.47;;;3.90;;
48241;SDS011;34041;51.812;4.622;2024-02-26T16:03:59;7.30;;;4.17;;
48241;SDS011;34041;51.812;4.622;2024-02-26T16:07:01;6.47;;;4.20;;
48241;SDS011;34041;51.812;4.622;2024-02-26T16:10:02;5.15;;;4.30;;
48241;SDS011;34041;51.812;4.622;2024-02-26T16:13:04;7.78;;;4.53;;
48241;SDS011;34041;51.812;4.622;2024-02-26T16:16:07;6.05;;;4.22;;
48241;SDS011;34041;51.812;4.622;2024-02-26T16:19:12;6.93;;;4.50;;
48241;SDS011;34041;51.812;4.622;2024-02-26T16:22:13;5.55;;;4.53;;
48241;SDS011;34041;51.812;4.622;2024-02-26T16:25:14;5.90;;;4.30;;
48241;SDS011;34041;51.812;4.622;2024-02-26T16:28:14;8.40;;;4.75;;
48241;SDS011;34041;51.812;4.622;2024-02-26T16:31:14;6.43;;;5.03;;
48241;SDS011;34041;51.812;4.622;2024-02-26T16:34:15;9.20;;;4.20;;
48241;SDS011;34041;51.812;4.622;2024-02-26T16:37:15;5.60;;;4.20;;
48241;SDS011;34041;51.812;4.622;2024-02-26T16:40:17;8.75;;;5.38;;
48241;SDS011;34041;51.812;4.622;2024-02-26T16:43:17;6.22;;;4.68;;
48241;SDS011;34041;51.812;4.622;2024-02-26T16:46:17;5.85;;;4.85;;
48241;SDS011;34041;51.812;4.622;2024-02-26T16:49:18;5.88;;;3.92;;
48241;SDS011;34041;51.812;4.622;2024-02-26T16:52:19;8.25;;;4.40;;
48241;SDS011;34041;51.812;4.622;2024-02-26T16:55:19;7.10;;;4.40;;
48241;SDS011;34041;51.812;4.622;2024-02-26T16:58:19;7.03;;;4.20;;
48241;SDS011;34041;51.812;4.622;2024-02-26T17:01:23;9.90;;;4.85;;
48241;SDS011;34041;51.812;4.622;2024-02-26T17:04:23;5.50;;;4.28;;
48241;SDS011;34041;51.812;4.622;2024-02-26T17:07:23;6.53;;;4.00;;
48241;SDS011;34041;51.812;4.622;2024-02-26T17:10:24;8.95;;;4.55;;
48241;SDS011;34041;51.812;4.622;2024-02-26T17:13:24;8.63;;;4.57;;
48241;SDS011;34041;51.812;4.622;2024-02-26T17:16:24;4.73;;;4.07;;
48241;SDS011;34041;51.812;4.622;2024-02-26T17:19:25;6.78;;;4.43;;
48241;SDS011;34041;51.812;4.622;2024-02-26T17:22:25;8.40;;;5.10;;
48241;SDS011;34041;51.812;4.622;2024-02-26T17:25:25;6.63;;;4.13;;
48241;SDS011;34041;51.812;4.622;2024-02-26T17:28:26;11.30;;;4.53;;
48241;SDS011;34041;51.812;4.622;2024-02-26T17:31:26;7.90;;;5.00;;
48241;SDS011;34041;51.812;4.622;2024-02-26T17:34:26;6.75;;;5.22;;
48241;SDS011;34041;51.812;4.622;2024-02-26T17:37:27;7.85;;;5.28;;
48241;SDS011;34041;51.812;4.622;2024-02-26T17:40:27;5.20;;;3.90;;
48241;SDS011;34041;51.812;4.622;2024-02-26T17:43:27;6.00;;;4.70;;
48241;SDS011;34041;51.812;4.622;2024-02-26T17:46:28;9.03;;;4.63;;
48241;SDS011;34041;51.812;4.622;2024-02-26T17:49:28;6.85;;;4.95;;
48241;SDS011;34041;51.812;4.622;2024-02-26T17:52:28;10.47;;;4.77;;
48241;SDS011;34041;51.812;4.622;2024-02-26T17:55:34;7.68;;;5.20;;
48241;SDS011;34041;51.812;4.622;2024-02-26T17:58:34;8.73;;;5.07;;
48241;SDS011;34041;51.812;4.622;2024-02-26T18:01:40;9.00;;;5.63;;
48241;SDS011;34041;51.812;4.622;2024-02-26T18:04:40;7.67;;;5.43;;
48241;SDS011;34041;51.812;4.622;2024-02-26T18:07:40;7.60;;;5.63;;